createdAt,value
2022-12-05T00:02:00.689Z,3.70
2022-12-05T00:04:29.186Z,3.70
2022-12-05T00:06:57.614Z,3.70
2022-12-05T00:09:27.221Z,3.70
2022-12-05T00:11:57.694Z,3.70
2022-12-05T00:14:26.115Z,3.70
2022-12-05T00:16:54.622Z,3.70
2022-12-05T00:19:23.225Z,3.70
2022-12-05T00:21:51.624Z,3.70
2022-12-05T00:24:20.200Z,3.70
2022-12-05T00:26:49.988Z,3.70
2022-12-05T00:29:18.481Z,3.70
2022-12-05T00:31:47.119Z,3.70
2022-12-05T00:34:15.504Z,3.70
2022-12-05T00:36:43.898Z,3.70
2022-12-05T00:39:14.315Z,3.70
2022-12-05T00:41:43.119Z,3.70
2022-12-05T00:44:14.322Z,3.70
2022-12-05T00:46:42.738Z,3.70
2022-12-05T00:49:12.506Z,3.70
2022-12-05T00:51:42.916Z,3.80
2022-12-05T00:54:14.010Z,3.80
2022-12-05T00:56:42.820Z,3.70
2022-12-05T00:59:17.075Z,3.70
2022-12-05T01:01:47.125Z,3.70
2022-12-05T01:04:18.013Z,3.70
2022-12-05T01:06:46.467Z,3.70
2022-12-05T01:09:16.130Z,3.70
2022-12-05T01:11:45.200Z,3.70
2022-12-05T01:14:16.222Z,3.80
2022-12-05T01:16:46.302Z,3.70
2022-12-05T01:19:16.464Z,3.80
2022-12-05T01:21:45.352Z,3.80
2022-12-05T01:24:13.862Z,3.80
2022-12-05T01:26:43.083Z,3.80
2022-12-05T01:29:13.078Z,3.80
2022-12-05T01:31:43.373Z,3.80
2022-12-05T01:34:13.683Z,3.80
2022-12-05T01:36:42.614Z,3.80
2022-12-05T01:39:12.525Z,3.80
2022-12-05T01:41:44.095Z,3.80
2022-12-05T01:44:45.282Z,3.80
2022-12-05T01:47:18.195Z,3.90
2022-12-05T01:49:47.066Z,3.90
2022-12-05T01:52:19.992Z,3.90
2022-12-05T01:54:51.088Z,3.90
2022-12-05T01:57:19.814Z,3.90
2022-12-05T01:59:51.418Z,3.90
2022-12-05T02:02:21.621Z,3.90
2022-12-05T02:05:00.465Z,4.00
2022-12-05T02:07:29.186Z,4.00
2022-12-05T02:09:57.543Z,4.00
2022-12-05T02:12:26.593Z,4.00
2022-12-05T02:15:06.755Z,4.00
2022-12-05T02:17:52.707Z,4.00
2022-12-05T02:20:31.631Z,4.10
2022-12-05T02:23:25.912Z,4.00
2022-12-05T02:26:26.500Z,4.10
2022-12-05T02:29:51.891Z,4.00
2022-12-05T02:32:34.019Z,4.10
2022-12-05T02:35:12.692Z,4.00
2022-12-05T02:37:47.156Z,4.00
2022-12-05T02:40:22.518Z,4.10
2022-12-05T02:42:57.022Z,4.10
2022-12-05T02:45:29.081Z,4.10
2022-12-05T02:48:00.458Z,4.10
2022-12-05T02:50:34.207Z,4.10
2022-12-05T02:53:06.473Z,4.10
2022-12-05T02:55:36.063Z,4.10
2022-12-05T02:58:08.585Z,4.10
2022-12-05T03:00:39.594Z,4.10
2022-12-05T03:03:15.597Z,4.10
2022-12-05T03:05:50.417Z,4.10
2022-12-05T03:08:22.181Z,4.10
2022-12-05T03:10:52.635Z,4.10
2022-12-05T03:13:28.324Z,4.20
2022-12-05T03:16:01.777Z,4.10
2022-12-05T03:18:35.789Z,4.20
2022-12-05T03:21:09.761Z,4.20
2022-12-05T03:23:42.830Z,4.20
2022-12-05T03:26:18.235Z,4.20
2022-12-05T03:28:55.730Z,4.20
2022-12-05T03:31:41.002Z,4.20
2022-12-05T03:34:15.556Z,4.20
2022-12-05T03:36:49.216Z,4.30
2022-12-05T03:39:24.212Z,4.20
2022-12-05T03:42:00.511Z,4.20
2022-12-05T03:44:35.598Z,4.20
2022-12-05T03:47:07.990Z,4.20
2022-12-05T03:49:42.522Z,4.30
2022-12-05T03:52:16.505Z,4.30
2022-12-05T03:54:47.554Z,4.30
2022-12-05T03:57:19.629Z,4.30
2022-12-05T03:59:52.925Z,4.30
2022-12-05T04:02:27.176Z,4.30
2022-12-05T04:05:02.655Z,4.30
2022-12-05T04:07:35.244Z,4.30
2022-12-05T04:10:08.230Z,4.30
2022-12-05T04:12:37.563Z,4.40
2022-12-05T04:15:09.861Z,4.30
2022-12-05T04:17:50.472Z,4.40
2022-12-05T04:20:43.944Z,4.40
2022-12-05T04:23:12.348Z,4.30
2022-12-05T04:25:51.308Z,4.30
2022-12-05T04:28:28.744Z,4.40
2022-12-05T04:31:04.672Z,4.30
2022-12-05T04:33:41.902Z,4.40
2022-12-05T04:36:17.568Z,4.30
2022-12-05T04:38:51.280Z,4.30
2022-12-05T04:41:24.501Z,4.30
2022-12-05T04:43:56.473Z,4.40
2022-12-05T04:46:25.910Z,4.40
2022-12-05T04:48:57.167Z,4.30
2022-12-05T04:51:30.431Z,4.30
2022-12-05T04:54:03.221Z,4.40
2022-12-05T04:56:35.282Z,4.40
2022-12-05T04:59:03.762Z,4.40
2022-12-05T05:01:37.006Z,4.40
2022-12-05T05:04:11.038Z,4.40
2022-12-05T05:06:41.560Z,4.40
2022-12-05T05:09:10.805Z,4.40
2022-12-05T05:11:39.346Z,4.40
2022-12-05T05:14:07.760Z,4.40
2022-12-05T05:16:38.312Z,4.40
2022-12-05T05:19:07.487Z,4.50
2022-12-05T05:21:37.586Z,4.40
2022-12-05T05:24:08.366Z,4.40
2022-12-05T05:26:38.452Z,4.40
2022-12-05T05:29:07.246Z,4.50
2022-12-05T05:31:36.319Z,4.50
2022-12-05T05:34:09.345Z,4.50
2022-12-05T05:36:39.065Z,4.50
2022-12-05T05:39:13.361Z,4.50
2022-12-05T05:41:42.178Z,4.50
2022-12-05T05:44:10.603Z,4.50
2022-12-05T05:46:39.378Z,4.50
2022-12-05T05:49:07.834Z,4.50
2022-12-05T05:51:36.214Z,4.50
2022-12-05T05:54:04.868Z,4.60
2022-12-05T05:56:34.429Z,4.60
2022-12-05T05:59:03.471Z,4.50
2022-12-05T06:01:32.435Z,4.50
2022-12-05T06:04:00.943Z,4.60
2022-12-05T06:06:29.616Z,4.60
2022-12-05T06:08:57.965Z,4.60
2022-12-05T06:11:27.627Z,4.60
2022-12-05T06:13:58.324Z,4.60
2022-12-05T06:16:26.699Z,4.60
2022-12-05T06:18:55.252Z,4.60
2022-12-05T06:21:24.080Z,4.60
2022-12-05T06:23:52.937Z,4.70
2022-12-05T06:26:23.092Z,4.60
2022-12-05T06:28:51.675Z,4.70
2022-12-05T06:31:23.132Z,4.70
2022-12-05T06:33:51.993Z,4.60
2022-12-05T06:36:22.009Z,4.70
2022-12-05T06:38:50.299Z,4.60
2022-12-05T06:41:20.202Z,4.70
2022-12-05T06:43:48.721Z,4.70
2022-12-05T06:46:17.422Z,4.70
2022-12-05T06:48:47.556Z,4.70
2022-12-05T06:51:17.347Z,4.70
2022-12-05T06:53:46.162Z,4.80
2022-12-05T06:56:16.293Z,4.80
2022-12-05T06:58:45.811Z,4.80
2022-12-05T07:01:32.882Z,4.80
2022-12-05T07:04:03.500Z,4.80
2022-12-05T07:06:31.723Z,4.80
2022-12-05T07:09:00.139Z,4.80
2022-12-05T07:11:28.831Z,4.80
2022-12-05T07:13:57.604Z,4.80
2022-12-05T07:16:25.996Z,4.80
2022-12-05T07:18:54.446Z,4.90
2022-12-05T07:21:24.461Z,4.80
2022-12-05T07:23:53.216Z,4.90
2022-12-05T07:26:23.371Z,4.90
2022-12-05T07:28:52.488Z,4.90
2022-12-05T07:31:22.678Z,4.90
2022-12-05T07:33:51.290Z,4.90
2022-12-05T07:36:20.774Z,4.90
2022-12-05T07:38:55.199Z,4.90
2022-12-05T07:41:25.507Z,4.90
2022-12-05T07:43:54.357Z,4.90
2022-12-05T07:46:23.236Z,4.90
2022-12-05T07:48:51.744Z,5.00
2022-12-05T07:51:21.093Z,4.90
2022-12-05T07:53:50.979Z,4.90
2022-12-05T07:56:19.940Z,5.00
2022-12-05T07:58:50.198Z,5.00
2022-12-05T08:01:19.850Z,5.00
2022-12-05T08:03:49.181Z,5.00
2022-12-05T08:06:20.468Z,5.10
2022-12-05T08:08:51.188Z,5.10
2022-12-05T08:11:21.338Z,5.10
2022-12-05T08:13:50.494Z,5.10
2022-12-05T08:16:20.344Z,5.10
2022-12-05T08:18:48.952Z,5.10
2022-12-05T08:21:18.514Z,5.10
2022-12-05T08:23:47.716Z,5.10
2022-12-05T08:26:18.654Z,5.10
2022-12-05T08:28:47.430Z,5.20
2022-12-05T08:31:17.777Z,5.20
2022-12-05T08:33:47.680Z,5.20
2022-12-05T08:36:17.627Z,5.20
2022-12-05T08:38:47.606Z,5.20
2022-12-05T08:41:18.911Z,5.20
2022-12-05T08:43:47.189Z,5.30
2022-12-05T08:46:15.641Z,5.30
2022-12-05T08:48:44.025Z,5.30
2022-12-05T08:51:13.605Z,5.30
2022-12-05T08:53:44.628Z,5.30
2022-12-05T08:56:13.962Z,5.40
2022-12-05T08:58:43.881Z,5.30
2022-12-05T09:01:14.113Z,5.40
2022-12-05T09:03:47.602Z,5.50
2022-12-05T09:06:18.633Z,5.50
2022-12-05T09:08:47.208Z,5.50
2022-12-05T09:11:17.528Z,5.50
2022-12-05T09:13:48.238Z,5.50
2022-12-05T09:16:18.176Z,5.50
2022-12-05T09:18:46.855Z,5.50
2022-12-05T09:21:17.703Z,5.50
2022-12-05T09:23:46.707Z,5.50
2022-12-05T09:26:17.658Z,5.60
2022-12-05T09:28:47.498Z,5.60
2022-12-05T09:31:17.282Z,5.60
2022-12-05T09:33:46.083Z,5.70
2022-12-05T09:36:15.867Z,5.70
2022-12-05T09:38:44.960Z,5.70
2022-12-05T09:41:42.375Z,5.70
2022-12-05T09:44:20.440Z,5.80
2022-12-05T09:46:54.327Z,5.80
2022-12-05T09:49:24.512Z,5.80
2022-12-05T09:51:56.188Z,5.90
2022-12-05T09:54:26.005Z,5.90
2022-12-05T09:56:54.523Z,5.90
2022-12-05T09:59:24.246Z,5.90
2022-12-05T10:01:59.337Z,5.90
2022-12-05T10:04:46.351Z,5.80
2022-12-05T10:07:20.241Z,5.90
2022-12-05T10:10:08.748Z,5.90
2022-12-05T10:12:46.738Z,6.00
2022-12-05T10:15:21.785Z,6.00
2022-12-05T10:17:54.549Z,6.00
2022-12-05T10:20:27.332Z,6.00
2022-12-05T10:23:00.189Z,6.00
2022-12-05T10:25:31.613Z,6.00
2022-12-05T10:28:02.923Z,6.10
2022-12-05T10:30:36.904Z,6.10
2022-12-05T10:33:14.341Z,6.10
2022-12-05T10:35:43.146Z,6.10
2022-12-05T10:38:24.981Z,6.10
2022-12-05T10:40:55.484Z,6.20
2022-12-05T10:43:27.301Z,6.10
2022-12-05T10:45:57.419Z,6.10
2022-12-05T10:48:26.384Z,6.10
2022-12-05T10:50:56.820Z,6.20
2022-12-05T10:53:28.327Z,6.10
2022-12-05T10:58:56.698Z,6.20
2022-12-05T11:01:27.598Z,6.10
2022-12-05T11:04:00.061Z,6.20
2022-12-05T11:06:29.697Z,6.30
2022-12-05T11:09:05.377Z,6.30
2022-12-05T11:11:35.265Z,6.30
2022-12-05T11:14:05.382Z,6.30
2022-12-05T11:16:37.546Z,6.30
2022-12-05T11:19:26.119Z,6.30
2022-12-05T11:21:55.022Z,6.30
2022-12-05T11:24:26.425Z,6.30
2022-12-05T11:26:54.851Z,6.30
2022-12-05T11:29:32.202Z,6.30
2022-12-05T11:32:03.500Z,6.30
2022-12-05T11:34:38.943Z,6.30
2022-12-05T11:37:13.753Z,6.10
2022-12-05T11:39:42.332Z,6.10
2022-12-05T11:42:22.191Z,6.20
2022-12-05T11:45:10.423Z,6.10
2022-12-05T11:47:57.422Z,6.30
2022-12-05T11:50:37.279Z,6.30
2022-12-05T11:53:18.644Z,6.40
2022-12-05T11:55:52.975Z,6.40
2022-12-05T11:58:43.546Z,6.50
2022-12-05T12:01:21.454Z,6.50
2022-12-05T12:04:16.653Z,6.50
2022-12-05T12:06:55.542Z,6.50
2022-12-05T12:09:34.993Z,6.50
2022-12-05T12:12:09.048Z,6.60
2022-12-05T12:14:47.693Z,6.60
2022-12-05T12:17:24.079Z,6.60
2022-12-05T12:20:17.448Z,6.60
2022-12-05T12:22:59.323Z,6.60
2022-12-05T12:25:40.567Z,6.60
2022-12-05T12:28:26.901Z,6.60
2022-12-05T12:31:10.104Z,6.60
2022-12-05T12:33:44.656Z,6.50
2022-12-05T12:36:19.618Z,6.50
2022-12-05T12:39:21.180Z,6.60
2022-12-05T12:42:13.247Z,6.60
2022-12-05T12:45:14.890Z,6.50
2022-12-05T12:47:59.234Z,6.50
2022-12-05T12:50:31.706Z,6.50
2022-12-05T12:53:28.922Z,6.40
2022-12-05T12:56:05.856Z,6.50
2022-12-05T12:58:48.061Z,6.50
2022-12-05T13:01:29.786Z,6.50
2022-12-05T13:04:04.364Z,6.50
2022-12-05T13:06:39.156Z,6.50
2022-12-05T13:09:15.957Z,6.50
2022-12-05T13:11:46.422Z,6.60
2022-12-05T13:14:17.080Z,6.60
2022-12-05T13:16:50.318Z,6.60
2022-12-05T13:19:27.956Z,6.60
2022-12-05T13:21:58.537Z,6.70
2022-12-05T13:24:29.836Z,6.70
2022-12-05T13:27:01.539Z,6.70
2022-12-05T13:29:34.737Z,6.70
2022-12-05T13:32:05.408Z,6.70
2022-12-05T13:34:54.709Z,6.80
2022-12-05T13:37:43.549Z,6.80
2022-12-05T13:40:46.040Z,6.80
2022-12-05T13:43:17.414Z,6.80
2022-12-05T13:46:00.769Z,6.80
2022-12-05T13:48:31.846Z,6.80
2022-12-05T13:51:03.700Z,6.80
2022-12-05T13:53:38.887Z,6.80
2022-12-05T13:56:27.208Z,6.80
2022-12-05T13:58:56.972Z,6.90
2022-12-05T14:01:53.714Z,6.90
2022-12-05T14:04:51.546Z,6.90
2022-12-05T14:07:44.229Z,6.90
2022-12-05T14:10:16.612Z,7.00
2022-12-05T14:12:51.933Z,6.90
2022-12-05T14:15:42.924Z,6.90
2022-12-05T14:18:17.022Z,7.00
2022-12-05T14:21:04.616Z,7.00
2022-12-05T14:24:04.929Z,7.10
2022-12-05T14:26:55.047Z,7.00
2022-12-05T14:29:39.927Z,7.00
2022-12-05T14:32:22.487Z,7.00
2022-12-05T14:34:58.526Z,7.00
2022-12-05T14:37:30.229Z,7.00
2022-12-05T14:40:00.233Z,7.00
2022-12-05T14:42:37.655Z,7.00
2022-12-05T14:45:25.913Z,7.10
2022-12-05T14:47:57.756Z,7.10
2022-12-05T14:50:44.596Z,7.10
2022-12-05T14:53:40.729Z,7.00
2022-12-05T14:56:18.525Z,7.00
2022-12-05T14:58:52.980Z,7.00
2022-12-05T15:01:26.651Z,7.10
2022-12-05T15:04:10.811Z,7.10
2022-12-05T15:06:47.588Z,7.10
2022-12-05T15:09:38.693Z,7.00
2022-12-05T15:12:13.092Z,7.10
2022-12-05T15:14:51.329Z,7.00
2022-12-05T15:17:26.998Z,7.10
2022-12-05T15:20:01.294Z,7.10
2022-12-05T15:22:30.812Z,7.00
2022-12-05T15:24:59.379Z,7.00
2022-12-05T15:27:27.773Z,7.00
2022-12-05T15:29:56.631Z,7.00
2022-12-05T15:32:29.256Z,7.00
2022-12-05T15:35:02.292Z,7.00
2022-12-05T15:37:36.171Z,7.00
2022-12-05T15:40:10.901Z,7.00
2022-12-05T15:42:43.008Z,7.00
2022-12-05T15:45:21.879Z,7.00
2022-12-05T15:47:53.740Z,6.90
2022-12-05T15:50:29.794Z,7.00
2022-12-05T15:53:02.641Z,6.90
2022-12-05T15:55:35.687Z,6.90
2022-12-05T15:58:12.761Z,6.90
2022-12-05T16:00:45.921Z,7.00
2022-12-05T16:03:21.887Z,7.00
2022-12-05T16:05:53.426Z,7.00
2022-12-05T16:08:24.405Z,6.90
2022-12-05T16:10:53.140Z,6.90
2022-12-05T16:13:26.062Z,6.90
2022-12-05T16:15:56.078Z,6.90
2022-12-05T16:18:31.504Z,7.00
2022-12-05T16:21:00.183Z,7.00
2022-12-05T16:23:30.025Z,7.00
2022-12-05T16:26:19.734Z,7.00
2022-12-05T16:28:58.844Z,7.00
2022-12-05T16:31:27.271Z,7.00
2022-12-05T16:34:09.277Z,7.00
2022-12-05T16:36:37.654Z,7.00
2022-12-05T16:39:08.949Z,6.90
2022-12-05T16:41:39.340Z,6.80
2022-12-05T16:44:31.697Z,6.80
2022-12-05T16:47:00.318Z,6.80
2022-12-05T16:49:42.717Z,6.70
2022-12-05T16:52:15.651Z,6.70
2022-12-05T16:54:46.249Z,6.60
2022-12-05T16:57:16.683Z,6.50
2022-12-05T16:59:48.343Z,6.50
2022-12-05T17:02:18.864Z,6.50
2022-12-05T17:04:48.558Z,6.40
2022-12-05T17:07:16.910Z,6.40
2022-12-05T17:09:45.280Z,6.40
2022-12-05T17:12:18.140Z,6.40
2022-12-05T17:14:47.160Z,6.40
2022-12-05T17:17:18.328Z,6.50
2022-12-05T17:19:48.284Z,6.40
2022-12-05T17:22:17.003Z,6.40
2022-12-05T17:24:45.396Z,6.50
2022-12-05T17:27:13.997Z,6.50
2022-12-05T17:29:42.454Z,6.40
2022-12-05T17:32:12.260Z,6.30
2022-12-05T17:34:40.721Z,6.20
2022-12-05T17:37:10.372Z,6.00
2022-12-05T17:39:38.871Z,6.00
2022-12-05T17:42:07.321Z,6.00
2022-12-05T17:44:35.871Z,6.00
2022-12-05T17:47:07.956Z,5.90
2022-12-05T17:49:36.848Z,5.80
2022-12-05T17:52:22.298Z,5.80
2022-12-05T17:54:52.338Z,5.80
2022-12-05T17:57:20.924Z,5.80
2022-12-05T17:59:49.262Z,5.90
2022-12-05T18:02:19.912Z,5.80
2022-12-05T18:04:48.214Z,5.90
2022-12-05T18:07:16.898Z,5.90
2022-12-05T18:09:45.320Z,5.90
2022-12-05T18:12:15.055Z,6.10
2022-12-05T18:14:43.623Z,6.00
2022-12-05T18:17:12.038Z,6.00
2022-12-05T18:19:40.339Z,5.90
2022-12-05T18:22:08.811Z,6.00
2022-12-05T18:24:37.025Z,5.90
2022-12-05T18:27:05.384Z,5.90
2022-12-05T18:29:35.206Z,5.90
2022-12-05T18:32:03.976Z,6.00
2022-12-05T18:34:32.279Z,5.90
2022-12-05T18:37:00.690Z,6.00
2022-12-05T18:39:29.290Z,5.90
2022-12-05T18:41:57.842Z,5.90
2022-12-05T18:44:26.514Z,5.80
2022-12-05T18:46:56.281Z,6.00
2022-12-05T18:49:25.003Z,5.80
2022-12-05T18:51:53.680Z,5.80
2022-12-05T18:54:22.103Z,5.80
2022-12-05T18:56:52.788Z,5.80
2022-12-05T18:59:22.299Z,5.70
2022-12-05T19:01:50.984Z,5.80
2022-12-05T19:04:21.994Z,5.90
2022-12-05T19:06:52.290Z,5.90
2022-12-05T19:09:25.855Z,5.80
2022-12-05T19:11:57.086Z,5.80
2022-12-05T19:14:26.443Z,6.00
2022-12-05T19:16:59.768Z,5.90
2022-12-05T19:19:30.241Z,5.80
2022-12-05T19:21:59.666Z,5.80
2022-12-05T19:24:28.206Z,5.80
2022-12-05T19:26:56.631Z,5.80
2022-12-05T19:29:25.229Z,5.90
2022-12-05T19:31:53.817Z,5.90
2022-12-05T19:34:22.695Z,5.90
2022-12-05T19:36:52.383Z,6.00
2022-12-05T19:39:23.651Z,6.00
2022-12-05T19:41:52.357Z,6.00
2022-12-05T19:44:20.609Z,5.90
2022-12-05T19:46:49.541Z,6.00
2022-12-05T19:49:18.440Z,5.90
2022-12-05T19:51:48.700Z,6.00
2022-12-05T19:54:19.588Z,6.10
2022-12-05T19:56:48.291Z,6.10
2022-12-05T19:59:17.565Z,6.20
2022-12-05T20:01:46.568Z,6.10
2022-12-05T20:04:16.473Z,6.30
2022-12-05T20:06:46.383Z,6.20
2022-12-05T20:09:16.757Z,6.20
2022-12-05T20:11:54.112Z,6.20
2022-12-05T20:14:24.392Z,6.20
2022-12-05T20:16:53.650Z,6.20
2022-12-05T20:19:22.428Z,6.20
2022-12-05T20:21:50.873Z,6.20
2022-12-05T20:24:19.432Z,6.00
2022-12-05T20:26:49.471Z,6.00
2022-12-05T20:29:18.016Z,6.00
2022-12-05T20:31:46.867Z,5.90
2022-12-05T20:34:15.919Z,5.90
2022-12-05T20:36:44.525Z,5.80
2022-12-05T20:39:15.710Z,5.70
2022-12-05T20:41:44.668Z,5.80
2022-12-05T20:44:16.645Z,5.80
2022-12-05T20:46:45.266Z,5.80
2022-12-05T20:49:14.050Z,5.70
2022-12-05T20:51:43.889Z,5.70
2022-12-05T20:54:13.777Z,5.60
2022-12-05T20:56:42.446Z,5.70
2022-12-05T20:59:14.227Z,5.50
2022-12-05T21:01:42.741Z,5.50
2022-12-05T21:04:12.453Z,5.60
2022-12-05T21:06:42.911Z,5.60
2022-12-05T21:09:15.919Z,5.50
2022-12-05T21:11:44.425Z,5.50
2022-12-05T21:14:14.091Z,5.60
2022-12-05T21:16:42.663Z,5.60
2022-12-05T21:19:11.045Z,5.60
2022-12-05T21:21:39.966Z,5.60
2022-12-05T21:24:09.304Z,5.70
2022-12-05T21:26:37.939Z,5.60
2022-12-05T21:29:08.297Z,5.60
2022-12-05T21:31:40.323Z,5.60
2022-12-05T21:34:13.434Z,5.60
2022-12-05T21:36:42.568Z,5.70
2022-12-05T21:39:11.340Z,5.60
2022-12-05T21:41:40.473Z,5.60
2022-12-05T21:44:09.404Z,5.60
2022-12-05T21:46:39.010Z,5.70
2022-12-05T21:49:07.471Z,5.60
2022-12-05T21:51:35.727Z,5.60
2022-12-05T21:54:04.658Z,5.60
2022-12-05T21:56:33.114Z,5.60
2022-12-05T21:59:01.525Z,5.70
2022-12-05T22:01:30.132Z,5.60
2022-12-05T22:04:00.913Z,5.70
2022-12-05T22:06:33.678Z,5.70
2022-12-05T22:09:02.319Z,5.70
2022-12-05T22:11:31.145Z,5.70
2022-12-05T22:13:59.512Z,5.70
2022-12-05T22:16:32.770Z,5.70
2022-12-05T22:19:03.690Z,5.70
2022-12-05T22:21:33.931Z,5.70
2022-12-05T22:24:03.009Z,5.80
2022-12-05T22:26:31.566Z,5.70
2022-12-05T22:28:59.993Z,5.80
2022-12-05T22:31:28.502Z,5.80
2022-12-05T22:33:57.239Z,5.90
2022-12-05T22:36:26.956Z,5.80
2022-12-05T22:38:55.159Z,5.90
2022-12-05T22:41:25.459Z,5.80
2022-12-05T22:43:56.676Z,5.80
2022-12-05T22:46:26.370Z,5.80
2022-12-05T22:48:54.963Z,5.80
2022-12-05T22:51:23.855Z,5.80
2022-12-05T22:53:54.265Z,5.70
2022-12-05T22:56:23.497Z,5.60
2022-12-05T22:58:54.945Z,5.60
2022-12-05T23:01:24.623Z,5.60
2022-12-05T23:03:56.291Z,5.60
2022-12-05T23:06:25.045Z,5.50
2022-12-05T23:08:55.536Z,5.50
2022-12-05T23:11:25.029Z,5.40
2022-12-05T23:14:01.293Z,5.20
2022-12-05T23:16:32.226Z,5.30
2022-12-05T23:19:02.224Z,5.20
2022-12-05T23:21:33.140Z,5.10
2022-12-05T23:24:04.769Z,5.10
2022-12-05T23:26:35.304Z,5.10
2022-12-05T23:29:04.241Z,5.10
2022-12-05T23:31:32.913Z,5.10
2022-12-05T23:34:03.461Z,5.00
2022-12-05T23:36:32.674Z,5.00
2022-12-05T23:39:02.868Z,4.90
2022-12-05T23:41:31.329Z,4.80
2022-12-05T23:44:00.084Z,4.90
2022-12-05T23:46:29.874Z,4.80
2022-12-05T23:48:58.742Z,4.70
2022-12-05T23:51:29.110Z,4.80
2022-12-05T23:53:59.390Z,4.70
2022-12-05T23:56:30.791Z,4.60
2022-12-05T23:58:59.337Z,4.60
